地図

経路データ

SID SEASON NUMBER BASIN SUBBASIN NAME ISO_TIME NATURE LAT LON WMO_WIND WMO_PRES WMO_AGENCY TRACK_TYPE DIST2LAND LANDFALL IFLAG USA_AGENCY USA_ATCF_ID USA_LAT USA_LON USA_RECORD USA_STATUS USA_WIND USA_PRES USA_SSHS USA_R34_NE USA_R34_SE USA_R34_SW USA_R34_NW USA_R50_NE USA_R50_SE USA_R50_SW USA_R50_NW USA_R64_NE USA_R64_SE USA_R64_SW USA_R64_NW USA_POCI USA_ROCI USA_RMW USA_EYE TOKYO_LAT TOKYO_LON TOKYO_GRADE TOKYO_WIND TOKYO_PRES TOKYO_R50_DIR TOKYO_R50_LONG TOKYO_R50_SHORT TOKYO_R30_DIR TOKYO_R30_LONG TOKYO_R30_SHORT TOKYO_LAND CMA_LAT CMA_LON CMA_CAT CMA_WIND CMA_PRES HKO_LAT HKO_LON HKO_CAT HKO_WIND HKO_PRES NEWDELHI_LAT NEWDELHI_LON NEWDELHI_GRADE NEWDELHI_WIND NEWDELHI_PRES NEWDELHI_CI NEWDELHI_DP NEWDELHI_POCI REUNION_LAT REUNION_LON REUNION_TYPE REUNION_WIND REUNION_PRES REUNION_TNUM REUNION_CI REUNION_RMW REUNION_R34_NE REUNION_R34_SE REUNION_R34_SW REUNION_R34_NW REUNION_R50_NE REUNION_R50_SE REUNION_R50_SW REUNION_R50_NW REUNION_R64_NE REUNION_R64_SE REUNION_R64_SW REUNION_R64_NW BOM_LAT BOM_LON BOM_TYPE BOM_WIND BOM_PRES BOM_TNUM BOM_CI BOM_RMW BOM_R34_NE BOM_R34_SE BOM_R34_SW BOM_R34_NW BOM_R50_NE BOM_R50_SE BOM_R50_SW BOM_R50_NW BOM_R64_NE BOM_R64_SE BOM_R64_SW BOM_R64_NW BOM_ROCI BOM_POCI BOM_EYE BOM_POS_METHOD BOM_PRES_METHOD NADI_LAT NADI_LON NADI_CAT NADI_WIND NADI_PRES WELLINGTON_LAT WELLINGTON_LON WELLINGTON_WIND WELLINGTON_PRES DS824_LAT DS824_LON DS824_STAGE DS824_WIND DS824_PRES TD9636_LAT TD9636_LON TD9636_STAGE TD9636_WIND TD9636_PRES TD9635_LAT TD9635_LON TD9635_WIND TD9635_PRES TD9635_ROCI NEUMANN_LAT NEUMANN_LON NEUMANN_CLASS NEUMANN_WIND NEUMANN_PRES MLC_LAT MLC_LON MLC_CLASS MLC_WIND MLC_PRES USA_GUST BOM_GUST BOM_GUST_PER REUNION_GUST REUNION_GUST_PER USA_SEAHGT USA_SEARAD_NE USA_SEARAD_SE USA_SEARAD_SW USA_SEARAD_NW STORM_SPEED STORM_DIR
1880250N24271 1880 18 NA GM NOT_NAMED 1880-09-06 00:00:00 TS 23.9000 -88.6000 40 hurdat_atl main 268 268 O_____________ hurdat_atl AL061880 23.9000 -88.6000 TS 40 0 3 26
1880250N24271 1880 18 NA GM NOT_NAMED 1880-09-06 03:00:00 TS 24.0375 -88.5200 main 279 279 P_____________ AL061880 24.0375 -88.5200 TS 40 0 4 31
1880250N24271 1880 18 NA GM NOT_NAMED 1880-09-06 06:00:00 TS 24.2000 -88.4000 40 hurdat_atl main 301 301 O_____________ hurdat_atl AL061880 24.2000 -88.4000 TS 40 0 5 37
1880250N24271 1880 18 NA GM NOT_NAMED 1880-09-06 09:00:00 TS 24.4000 -88.2151 main 324 324 P_____________ AL061880 24.4000 -88.2151 TS 40 0 5 42
1880250N24271 1880 18 NA GM NOT_NAMED 1880-09-06 12:00:00 TS 24.6000 -88.0000 40 hurdat_atl main 346 346 O_____________ hurdat_atl AL061880 24.6000 -88.0000 TS 40 0 5 47
1880250N24271 1880 18 NA GM NOT_NAMED 1880-09-06 15:00:00 TS 24.7575 -87.7924 main 368 368 P_____________ AL061880 24.7575 -87.7924 TS 40 0 5 50
1880250N24271 1880 18 NA GM NOT_NAMED 1880-09-06 18:00:00 TS 24.9000 -87.6000 40 hurdat_atl main 380 380 O_____________ hurdat_atl AL061880 24.9000 -87.6000 TS 40 0 4 48
1880250N24271 1880 18 NA GM NOT_NAMED 1880-09-06 21:00:00 TS 25.0425 -87.4424 main 392 392 P_____________ AL061880 25.0425 -87.4424 TS 40 0 4 42
1880250N24271 1880 18 NA GM NOT_NAMED 1880-09-07 00:00:00 TS 25.2000 -87.3000 40 hurdat_atl main 414 414 O_____________ hurdat_atl AL061880 25.2000 -87.3000 TS 40 0 4 36
1880250N24271 1880 18 NA GM NOT_NAMED 1880-09-07 03:00:00 TS 25.3925 -87.1574 main 436 432 P_____________ AL061880 25.3925 -87.1574 TS 40 0 5 34
1880250N24271 1880 18 NA GM NOT_NAMED 1880-09-07 06:00:00 TS 25.6000 -87.0000 40 hurdat_atl main 432 423 O_____________ hurdat_atl AL061880 25.6000 -87.0000 TS 40 0 5 39
1880250N24271 1880 18 NA GM NOT_NAMED 1880-09-07 09:00:00 TS 25.7850 -86.7999 main 423 415 P_____________ AL061880 25.7850 -86.7999 TS 40 0 5 42
1880250N24271 1880 18 NA GM NOT_NAMED 1880-09-07 12:00:00 TS 26.0000 -86.6000 40 hurdat_atl main 415 394 O_____________ hurdat_atl AL061880 26.0000 -86.6000 TS 40 0 6 32
1880250N24271 1880 18 NA GM NOT_NAMED 1880-09-07 15:00:00 TS 26.2925 -86.4425 main 389 357 P_____________ AL061880 26.2925 -86.4425 TS 40 0 7 24
1880250N24271 1880 18 NA GM NOT_NAMED 1880-09-07 18:00:00 TS 26.6000 -86.3000 40 hurdat_atl main 357 333 O_____________ hurdat_atl AL061880 26.6000 -86.3000 TS 40 0 6 25
1880250N24271 1880 18 NA GM NOT_NAMED 1880-09-07 21:00:00 TS 26.8500 -86.1573 main 333 296 P_____________ AL061880 26.8500 -86.1573 TS 45 0 6 28
1880250N24271 1880 18 NA GM NOT_NAMED 1880-09-08 00:00:00 TS 27.1000 -86.0000 50 hurdat_atl main 296 272 O_____________ hurdat_atl AL061880 27.1000 -86.0000 TS 50 0 6 28
1880250N24271 1880 18 NA GM NOT_NAMED 1880-09-08 03:00:00 TS 27.3622 -85.8518 main 261 224 P_____________ AL061880 27.3622 -85.8518 TS 50 0 7 31
1880250N24271 1880 18 NA GM NOT_NAMED 1880-09-08 06:00:00 TS 27.7000 -85.6000 50 hurdat_atl main 224 178 O_____________ hurdat_atl AL061880 27.7000 -85.6000 TS 50 0 10 38
1880250N24271 1880 18 NA GM NOT_NAMED 1880-09-08 09:00:00 TS 28.1121 -85.1871 main 178 115 P_____________ AL061880 28.1121 -85.1871 TS 50 0 13 41
1880250N24271 1880 18 NA GM NOT_NAMED 1880-09-08 12:00:00 TS 28.7000 -84.6000 50 hurdat_atl main 115 44 O_____________ hurdat_atl AL061880 28.7000 -84.6000 TS 50 0 19 39
1880250N24271 1880 18 NA GM NOT_NAMED 1880-09-08 15:00:00 TS 29.5636 -83.8594 main 36 0 P_____________ AL061880 29.5636 -83.8594 TS 50 0 21 38
1880250N24271 1880 18 NA GM NOT_NAMED 1880-09-08 16:00:00 TS 29.8000 -83.6000 50 hurdat_atl main 0 0 O_____________ hurdat_atl AL061880 29.8000 -83.6000 L TS 50 0 17 51
1880250N24271 1880 18 NA NA NOT_NAMED 1880-09-08 18:00:00 TS 30.1000 -83.1000 40 hurdat_atl main 0 0 O_____________ hurdat_atl AL061880 30.1000 -83.1000 TS 40 0 22 56
1880250N24271 1880 18 NA NA NOT_NAMED 1880-09-08 21:00:00 TS 30.8077 -81.8655 main 0 0 P_____________ AL061880 30.8077 -81.8655 TS 50 0 28 55
1880250N24271 1880 18 NA NA NOT_NAMED 1880-09-09 00:00:00 TS 31.7000 -80.4000 60 hurdat_atl main 52 52 O_____________ hurdat_atl AL061880 31.7000 -80.4000 TS 60 0 29 52
1880250N24271 1880 18 NA NA NOT_NAMED 1880-09-09 03:00:00 TS 32.5854 -79.1483 main 52 50 P_____________ AL061880 32.5854 -79.1483 TS 65 1 26 47
1880250N24271 1880 18 NA NA NOT_NAMED 1880-09-09 06:00:00 TS 33.5000 -78.1000 70 987 hurdat_atl main 44 14 O_____________ hurdat_atl AL061880 33.5000 -78.1000 HU 70 987 1 24 40
1880250N24271 1880 18 NA NA NOT_NAMED 1880-09-09 09:00:00 TS 34.3994 -77.3547 main 11 9 P_____________ AL061880 34.3994 -77.3547 HU 70 987 1 22 35
1880250N24271 1880 18 NA NA NOT_NAMED 1880-09-09 10:00:00 TS 34.7000 -77.1000 70 987 hurdat_atl main 0 0 O_____________ hurdat_atl AL061880 34.7000 -77.1000 L HU 70 987 1 23 38
1880250N24271 1880 18 NA NA NOT_NAMED 1880-09-09 12:00:00 TS 35.3000 -76.5000 70 hurdat_atl main 0 0 O_____________ hurdat_atl AL061880 35.3000 -76.5000 HU 70 1 24 43
1880250N24271 1880 18 NA NA NOT_NAMED 1880-09-09 15:00:00 TS 36.1486 -75.4510 main 14 14 P_____________ AL061880 36.1486 -75.4510 HU 70 1 25 46
1880250N24271 1880 18 NA NA NOT_NAMED 1880-09-09 18:00:00 TS 37.0000 -74.3000 70 hurdat_atl main 135 135 O_____________ hurdat_atl AL061880 37.0000 -74.3000 HU 70 1 25 45
1880250N24271 1880 18 NA NA NOT_NAMED 1880-09-09 21:00:00 TS 37.9322 -73.2129 main 171 169 P_____________ AL061880 37.9322 -73.2129 HU 70 1 26 44
1880250N24271 1880 18 NA NA NOT_NAMED 1880-09-10 00:00:00 TS 38.9000 -72.0000 70 hurdat_atl main 208 189 O_____________ hurdat_atl AL061880 38.9000 -72.0000 HU 70 1 29 47
1880250N24271 1880 18 NA NA NOT_NAMED 1880-09-10 03:00:00 TS 39.8807 -70.4957 main 178 129 P_____________ AL061880 39.8807 -70.4957 HU 70 1 30 51
1880250N24271 1880 18 NA NA NOT_NAMED 1880-09-10 06:00:00 TS 40.8000 -68.9000 70 hurdat_atl main 135 135 O_____________ hurdat_atl AL061880 40.8000 -68.9000 HU 70 1 29 54
1880250N24271 1880 18 NA NA NOT_NAMED 1880-09-10 09:00:00 TS 41.6244 -67.3739 main 215 137 P_____________ AL061880 41.6244 -67.3739 HU 70 1 26 55
1880250N24271 1880 18 NA NA NOT_NAMED 1880-09-10 12:00:00 TS 42.3000 -66.0000 70 hurdat_atl main 135 81 O_____________ hurdat_atl AL061880 42.3000 -66.0000 HU 70 1 22 57
1880250N24271 1880 18 NA NA NOT_NAMED 1880-09-10 15:00:00 TS 42.7993 -64.8922 main 84 82 P_____________ AL061880 42.7993 -64.8922 HU 70 1 18 60
1880250N24271 1880 18 NA NA NOT_NAMED 1880-09-10 18:00:00 TS 43.2000 -63.9000 70 hurdat_atl main 98 98 O_____________ hurdat_atl AL061880 43.2000 -63.9000 HU 70 1 17 62
1880250N24271 1880 18 NA NA NOT_NAMED 1880-09-10 21:00:00 TS 43.6132 -62.8356 main 109 100 P_____________ AL061880 43.6132 -62.8356 HU 65 1 18 63
1880250N24271 1880 18 NA NA NOT_NAMED 1880-09-11 00:00:00 ET 44.0000 -61.7000 60 hurdat_atl main 109 102 O_____________ hurdat_atl AL061880 44.0000 -61.7000 EX 60 -4 19 67
1880250N24271 1880 18 NA NA NOT_NAMED 1880-09-11 03:00:00 ET 44.3650 -60.4143 main 104 104 P_____________ AL061880 44.3650 -60.4143 EX 60 -4 20 69
1880250N24271 1880 18 NA NA NOT_NAMED 1880-09-11 06:00:00 ET 44.7000 -59.1000 60 hurdat_atl main 142 142 O_____________ hurdat_atl AL061880 44.7000 -59.1000 EX 60 -4 19 71
1880250N24271 1880 18 NA NA NOT_NAMED 1880-09-11 09:00:00 ET 44.9980 -57.8899 main 192 186 P_____________ AL061880 44.9980 -57.8899 EX 60 -4 18 71
1880250N24271 1880 18 NA NA NOT_NAMED 1880-09-11 12:00:00 ET 45.3000 -56.7000 60 hurdat_atl main 183 133 O_____________ hurdat_atl AL061880 45.3000 -56.7000 EX 60 -4 18 69
1880250N24271 1880 18 NA NA NOT_NAMED 1880-09-11 15:00:00 ET 45.6407 -55.4691 main 134 85 P_____________ AL061880 45.6407 -55.4691 EX 60 -4 19 68
1880250N24271 1880 18 NA NA NOT_NAMED 1880-09-11 18:00:00 ET 46.0000 -54.2000 60 hurdat_atl main 80 O_____________ hurdat_atl AL061880 46.0000 -54.2000 EX 60 -4 19 68

IBTrACS Databaseについて

本データベースは、米国NOAAが公開する1842年以降の世界の熱帯低気圧のベストトラックデータアーカイブInternational Best Track Archive for Climate Stewardship (IBTrACS)を、ウェブで閲覧しやすい形式に変換したものです。

最終更新日:2021-10-21